Decoded Metar for UWWW (SAMARA in RUSSIA) (IATA:KBY) | Meteo·Mobile Aviation Weather
aviador You're here:

UWWW Decoded Metar

SAMARA in RUSSIA
Report Time2019-07-23 03:00:00
UTC Time2019-07-23 03:37:33
Flight Rules vfr VFR
Wind300° at 6 kt
W.Decomp.*RWY 33: 4.5 kt HW 4 kt LCW
RWY 23: 3.2 kt HW 5.1 kt RCW
Visibility9999 m
Phenomena:N/A
Clouds:N/A
Expected CloudBase > 800 ft AGL from Temp-Dew spread
CeilingNone
Temp16°C (ISA +2)
Dew Point14°C (88% RH)
AAT15.1°C
QNH1013 hPa
Density Alt925 ft
Elevation479 ft
Report Wrong Elevation
Raw Report
UWWW 230300Z 30003MPS CAVOK 16/14 Q1013 R33/CLRD60 NOSIG RMK
QFE749/0999=

Extra information for UWWW:More info

Metar Taf Metar & Taf Last 4 Metars F.Rules Stats Wind Profile Meteogram Temp Stats Airport Information Weather charts Add Link Nearby VenuesMetar ALERT Operation Metar Decoded Social comments